Weather observations for the past three days for
Deadhorse, Deadhorse Airport
| Date | Time (akdt) | Wind (kph) | Vis. (km) | Weather | Sky Cond. | Temperature (ºC) | Relative Humidity | Wind Chill (°C) | Heat Index (°C) | Pressure | Precipitation (cm) | ||||||
|---|---|---|---|---|---|---|---|---|---|---|---|---|---|---|---|---|---|
| Air | Dwpt | 6 hour | altimeter (cm) | sea level (mb) | 1 hr | 3 hr | 6 hr | ||||||||||
| Max. | Min. | ||||||||||||||||
| 06 | 02:53 | E 6 | 4.02 | Fog/Mist | SCT002 BKN007 OVC011 | 1.1 | 1.1 | 100% | 76.1 | 1014.6 | |||||||
| 06 | 01:53 | E 9 | 2.01 | Fog/Mist | OVC002 | 1.1 | 1.1 | 100% | -1 | 76.1 | 1014.7 | ||||||
| 06 | 00:53 | E 11 | 2.01 | Fog/Mist | OVC002 | 1.1 | 1.1 | 100% | -2 | 76.1 | 1014.7 | ||||||
| 05 | 23:53 | E 15 | 2.01 | Fog/Mist | OVC002 | 1.1 | 1.1 | 100% | -3 | 76.1 | 1014.7 | ||||||
| 05 | 22:53 | E 20 | 1.21 | Fog/Mist | OVC002 | 1.1 | 1.1 | 100% | -3 | 76.07 | 1014.4 | ||||||
| 05 | 21:53 | E 20 | 1.21 | Fog/Mist | OVC002 | 1.1 | 1.1 | 2.2 | 1.1 | 100% | -3 | 76.07 | 1014.3 | ||||
| 05 | 20:53 | E 26 | 1.21 | Fog/Mist | OVC002 | 1.1 | 1.1 | 100% | -4 | 76.07 | 1014.1 | ||||||
| 05 | 19:53 | E 30 | 1.21 | Fog/Mist | OVC002 | 1.1 | 1.1 | 100% | -5 | 76.05 | 1014.0 | ||||||
| 05 | 18:53 | E 33 G 46 | 1.61 | Fog/Mist and Breezy | OVC002 | 1.1 | 1.1 | 100% | -5 | 76.05 | 1013.8 | ||||||
| 05 | 17:53 | E 35 G 56 | 1.21 | Fog/Mist and Breezy | OVC002 | 1.1 | 1.1 | 100% | -5 | 76.02 | 1013.6 | ||||||
| 05 | 16:53 | E 41 G 54 | 16.09 | Overcast and Breezy | OVC007 | 1.7 | 0.6 | 93% | -5 | 76.02 | 1013.6 | ||||||
| 05 | 15:53 | E 46 G 56 | 16.09 | Overcast and Windy | OVC007 | 2.2 | 0.6 | 2.8 | 0.6 | 89% | -4 | 76.02 | 1013.7 | ||||
| 05 | 14:53 | E 35 G 57 | 16.09 | Overcast and Breezy | OVC007 | 2.2 | 1.1 | 93% | -4 | 76.05 | 1013.9 | ||||||
| 05 | 13:53 | E 46 G 61 | 16.09 | Overcast and Windy | OVC007 | 2.8 | 1.1 | 89% | -4 | 76.07 | 1014.3 | ||||||
| 05 | 12:53 | E 44 G 63 | 16.09 | Overcast and Windy | OVC007 | 2.2 | 0.6 | 89% | -4 | 76.12 | 1014.8 | ||||||
| 05 | 09:53 | E 41 G 63 | 3.22 | Fog/Mist and Breezy | OVC003 | 0.6 | 0 | 0.6 | -0.6 | 96% | -6 | 76.23 | 1016.3 | ||||
| 05 | 08:53 | E 41 G 57 | 3.22 | Fog/Mist and Breezy | OVC003 | 0.6 | 0 | 96% | -6 | 76.28 | 1017.0 | ||||||
| 05 | 07:53 | E 41 G 61 | 4.83 | Fog/Mist and Breezy | OVC004 | 0 | -0.6 | 96% | -7 | 76.33 | 1017.5 | ||||||
| 05 | 06:53 | E 41 G 56 | 2.41 | Fog/Mist and Breezy | OVC004 | 0 | -0.6 | 96% | -7 | 76.33 | 1017.7 | ||||||
| 05 | 05:53 | E 41 G 54 | 6.44 | Fog/Mist and Breezy | OVC003 | 0 | -0.6 | 96% | -7 | 76.38 | 1018.3 | ||||||
| 05 | 04:53 | E 35 G 57 | 6.44 | Fog/Mist and Breezy | OVC003 | -0.6 | -1.1 | 96% | -7 | 76.43 | 1019.0 | ||||||
| 05 | 03:53 | E 41 G 54 | 11.27 | Overcast and Breezy | OVC005 | 0 | -0.6 | 1.1 | -0.6 | 96% | -7 | 76.45 | 1019.4 | ||||
| 05 | 02:53 | E 37 G 54 | 9.66 | Light Drizzle Fog/Mist and Breezy | OVC004 | 0.6 | -0.6 | 92% | -6 | 76.48 | 1019.8 | ||||||
| 05 | 01:53 | E 30 | 9.66 | Fog/Mist | OVC004 | 0.6 | 0 | 96% | -5 | 76.53 | 1020.4 | ||||||
| 05 | 00:53 | E 31 G 44 | 16.09 | Overcast | OVC007 | 0.6 | 0 | 96% | -5 | 76.56 | 1020.6 | ||||||
| 04 | 23:53 | E 30 G 48 | 16.09 | Overcast | OVC004 | 0 | -0.6 | 96% | -6 | 76.56 | 1020.8 | ||||||
| 04 | 22:53 | E 37 | 16.09 | Overcast and Breezy | OVC004 | -0.6 | -1.1 | 96% | -7 | 76.61 | 1021.4 | ||||||
| 04 | 21:53 | E 33 G 46 | 16.09 | Overcast and Breezy | OVC003 | -0.6 | -1.1 | 1.7 | -0.6 | 96% | -7 | 76.58 | 1021.1 | ||||
| 04 | 20:53 | E 30 G 44 | 9.66 | Fog/Mist | OVC003 | -0.6 | -1.1 | 96% | -7 | 76.61 | 1021.2 | ||||||
| 04 | 19:53 | E 31 G 46 | 4.83 | Fog/Mist | OVC003 | -0.6 | -1.1 | 96% | -7 | 76.61 | 1021.3 | ||||||
| 04 | 18:53 | E 31 | 14.48 | Overcast | OVC005 | -0.6 | -1.1 | 96% | -7 | 76.58 | 1021.1 | ||||||
| 04 | 17:53 | E 31 G 41 | 16.09 | Overcast | OVC006 | 0.6 | -0.6 | 92% | -5 | 76.58 | 1020.9 | ||||||
| 04 | 16:53 | E 28 | 16.09 | Overcast | OVC005 | 0.6 | -0.6 | 92% | -5 | 76.58 | 1021.0 | ||||||
| 04 | 15:53 | NE 33 | 16.09 | Overcast and Breezy | OVC006 | 1.7 | -0.6 | 2.2 | -0.6 | 85% | -4 | 76.56 | 1020.7 | ||||
| 04 | 14:53 | E 30 | 16.09 | Mostly Cloudy | BKN006 | 0.6 | -1.1 | 89% | -5 | 76.53 | 1020.3 | ||||||
| 04 | 13:53 | NE 30 | 16.09 | Overcast | OVC007 | 0.6 | -1.1 | 89% | -5 | 76.53 | 1020.3 | ||||||
| 04 | 12:53 | E 28 | 16.09 | Mostly Cloudy | BKN008 | 0.6 | -1.1 | 89% | -5 | 76.5 | 1020.1 | ||||||
| 04 | 11:53 | NE 28 | 16.09 | Mostly Cloudy | BKN006 | 0 | -1.1 | 92% | -6 | 76.48 | 1019.6 | ||||||
| 04 | 10:53 | NE 28 | 16.09 | Overcast | OVC007 | 0 | -1.7 | 88% | -6 | 76.43 | 1019.2 | ||||||
| 04 | 09:53 | NE 26 | 16.09 | Overcast | OVC007 | 0 | -1.1 | 0 | -0.6 | 92% | -6 | 76.43 | 1018.9 | ||||
| 04 | 08:53 | NE 24 | 16.09 | Overcast | OVC006 | -0.6 | -1.1 | 96% | -6 | 76.4 | 1018.7 | ||||||
| 04 | 07:53 | NE 30 | 16.09 | Overcast | BKN006 OVC010 | -0.6 | -1.7 | 92% | -7 | 76.38 | 1018.3 | ||||||
| 04 | 06:53 | NE 28 | 16.09 | Overcast | BKN006 OVC010 | -0.6 | -1.7 | 92% | -7 | 76.38 | 1018.4 | ||||||
| 04 | 05:53 | NE 30 | 16.09 | Overcast | BKN006 OVC180 | -0.6 | -1.1 | 96% | -7 | 76.35 | 1018.0 | ||||||
| 04 | 04:53 | NE 31 | 16.09 | Overcast | OVC009 | -0.6 | -1.7 | 92% | -7 | 76.33 | 1017.8 | ||||||
| 04 | 03:53 | E 30 | 16.09 | Overcast | OVC005 | -0.6 | -1.1 | 1.1 | -0.6 | 96% | -7 | 76.33 | 1017.8 | ||||
| 04 | 02:53 | NE 35 | 12.87 | Overcast and Breezy | OVC004 | 0 | -0.6 | 96% | -7 | 76.35 | 1017.8 | ||||||
| 04 | 01:53 | E 28 | 16.09 | Overcast | OVC006 | 0 | -0.6 | 96% | -6 | 76.35 | 1018.0 | ||||||
| 04 | 00:53 | E 24 | 16.09 | Overcast | OVC007 | 0.6 | -0.6 | 92% | -5 | 76.38 | 1018.3 | ||||||
| 03 | 23:53 | E 22 | 16.09 | Overcast | OVC009 | 1.1 | 0 | 92% | -4 | 76.38 | 1018.2 | ||||||
| 03 | 22:53 | E 19 | 16.09 | Mostly Cloudy | FEW007 BKN220 | 0.6 | 0 | 96% | -4 | 76.38 | 1018.2 | ||||||
| 03 | 21:53 | E 15 | 16.09 | Mostly Cloudy | FEW007 BKN230 | 1.1 | 0.6 | 4.4 | 1.1 | 97% | -3 | 76.38 | 1018.2 | ||||
| 03 | 20:53 | E 15 | 16.09 | Fair | CLR | 1.7 | 0.6 | 93% | -2 | 76.35 | 1018.0 | ||||||
| 03 | 19:53 | NE 19 | 16.09 | A Few Clouds | FEW029 | 2.8 | 0.6 | 86% | -1 | 76.35 | 1018.1 | ||||||
| 03 | 18:53 | E 15 | 16.09 | Overcast | OVC028 | 3.9 | 0.6 | 79% | 1 | 76.38 | 1018.3 | 0.03 | |||||
| 03 | 17:53 | E 15 | 16.09 | Light Rain | FEW017 OVC027 | 4.4 | 1.1 | 79% | 1 | 76.38 | 1018.4 | ||||||
| 03 | 16:53 | NE 11 | 14.48 | Light Rain | BKN017 OVC030 | 3.3 | 1.1 | 86% | 1 | 76.4 | 1018.5 | 0.03 | |||||
| 03 | 15:53 | NE 11 | 11.27 | Overcast | BKN017 OVC030 | 2.8 | 1.7 | 5 | 1.7 | 93% | 0 | 76.38 | 1018.4 | 0.05 | 0.05 | ||
| 03 | 14:53 | SW 11 | 6.44 | Light Rain | BKN012 BKN026 OVC033 | 3.9 | 1.7 | 86% | 1 | 76.4 | 1018.5 | ||||||
| 03 | 13:53 | Calm | 16.09 | Overcast | BKN012 BKN017 OVC095 | 3.3 | 1.7 | 89% | 76.38 | 1018.4 | |||||||
| 03 | 12:53 | W 11 | 16.09 | Overcast | BKN011 BKN017 OVC095 | 3.9 | 1.1 | 82% | 1 | 76.35 | 1017.9 | ||||||
| 03 | 11:53 | W 15 | 16.09 | Overcast | BKN011 OVC013 | 2.8 | 1.1 | 89% | -1 | 76.33 | 1017.6 | ||||||
| 03 | 10:53 | W 19 | 16.09 | Overcast | OVC010 | 2.2 | 1.1 | 93% | -2 | 76.3 | 1017.2 | ||||||
| 03 | 09:53 | W 20 | 16.09 | Overcast | BKN010 BKN050 OVC100 | 1.7 | 1.1 | 1.7 | 1.7 | 96% | -3 | 76.25 | 1016.7 | ||||
| 03 | 08:53 | SW 20 | 16.09 | Overcast | SCT011 OVC018 | 1.7 | 0.6 | 93% | -3 | 76.23 | 1016.3 | ||||||
| 03 | 07:53 | SW 19 | 14.48 | Light Snow | BKN011 OVC090 | 1.7 | 0.6 | 93% | -2 | 76.17 | 1015.7 | ||||||
| 03 | 06:53 | W 19 | 14.48 | Light Snow | OVC013 | 1.7 | 0.6 | 93% | -2 | 76.15 | 1015.1 | ||||||
| 03 | 05:53 | SW 20 | 16.09 | Overcast | FEW010 OVC015 | 1.7 | 0.6 | 93% | -3 | 76.1 | 1014.7 | ||||||
| 03 | 04:53 | SW 20 | 16.09 | Overcast | BKN015 BKN070 OVC090 | 1.7 | 0.6 | 93% | -3 | 76.07 | 1014.3 | ||||||
| 03 | 03:53 | W 26 | 16.09 | Overcast | BKN017 BKN027 OVC043 | 1.7 | 0.6 | 2.8 | 1.7 | 93% | -3 | 76.02 | 1013.7 | 0.1 | |||
| Date | Time (akdt) | Wind (kph) | Vis. (km) | Weather | Sky Cond. | Air | Dwpt | Max. | Min. | Relative Humidity | Wind Chill (°C) | Heat Index (°C) | altimeter (cm) | sea level (mb) | 1 hr | 3 hr | 6 hr |
| 6 hour | |||||||||||||||||
| Temperature (ºC) | Pressure | Precipitation (cm) | |||||||||||||||